createdAt,value
2022-09-07T00:01:10.648Z,21.20
2022-09-07T00:03:38.623Z,21.20
2022-09-07T00:06:10.881Z,21.20
2022-09-07T00:08:41.018Z,21.20
2022-09-07T00:11:12.942Z,21.20
2022-09-07T00:13:43.369Z,21.20
2022-09-07T00:16:13.754Z,21.20
2022-09-07T00:18:45.748Z,21.20
2022-09-07T00:21:17.644Z,21.30
2022-09-07T00:23:46.282Z,21.20
2022-09-07T00:26:15.859Z,21.20
2022-09-07T00:28:44.550Z,21.20
2022-09-07T00:31:15.399Z,21.10
2022-09-07T00:33:44.347Z,21.10
2022-09-07T00:36:12.999Z,21.10
2022-09-07T00:38:42.504Z,21.00
2022-09-07T00:41:11.505Z,21.00
2022-09-07T00:43:41.836Z,21.00
2022-09-07T00:46:14.603Z,21.00
2022-09-07T00:48:47.723Z,21.00
2022-09-07T00:51:19.720Z,21.00
2022-09-07T00:53:54.314Z,21.10
2022-09-07T00:56:24.923Z,21.00
2022-09-07T00:58:53.887Z,21.00
2022-09-07T01:01:22.416Z,21.00
2022-09-07T01:03:53.171Z,21.00
2022-09-07T01:06:23.225Z,20.90
2022-09-07T01:08:52.742Z,20.90
2022-09-07T01:11:23.366Z,20.90
2022-09-07T01:13:52.967Z,20.90
2022-09-07T01:16:33.238Z,20.90
2022-09-07T01:19:14.974Z,20.90
2022-09-07T01:21:57.039Z,20.90
2022-09-07T01:24:53.332Z,20.90
2022-09-07T01:27:52.244Z,20.90
2022-09-07T01:30:22.021Z,20.90
2022-09-07T01:33:10.502Z,20.90
2022-09-07T01:35:46.262Z,20.90
2022-09-07T01:38:20.682Z,20.80
2022-09-07T01:40:56.179Z,20.80
2022-09-07T01:43:35.252Z,20.70
2022-09-07T01:46:06.455Z,20.70
2022-09-07T01:48:37.090Z,20.80
2022-09-07T01:51:06.245Z,20.80
2022-09-07T01:53:40.099Z,20.70
2022-09-07T01:56:11.309Z,20.70
2022-09-07T01:58:44.421Z,20.60
2022-09-07T02:01:18.215Z,20.70
2022-09-07T02:03:50.829Z,20.70
2022-09-07T02:06:24.066Z,20.70
2022-09-07T02:08:57.070Z,20.70
2022-09-07T02:11:30.996Z,20.70
2022-09-07T02:14:04.184Z,20.60
2022-09-07T02:16:36.043Z,20.60
2022-09-07T02:19:09.503Z,20.60
2022-09-07T02:21:42.178Z,20.60
2022-09-07T02:24:13.569Z,20.60
2022-09-07T02:26:42.575Z,20.60
2022-09-07T02:29:11.910Z,20.50
2022-09-07T02:31:39.881Z,20.50
2022-09-07T02:34:07.894Z,20.40
2022-09-07T02:36:40.911Z,20.40
2022-09-07T02:39:09.023Z,20.30
2022-09-07T02:41:39.489Z,20.20
2022-09-07T02:44:10.296Z,20.30
2022-09-07T02:46:53.546Z,20.30
2022-09-07T02:49:39.763Z,20.30
2022-09-07T02:52:20.963Z,20.30
2022-09-07T02:55:01.048Z,20.30
2022-09-07T02:57:44.515Z,20.40
2022-09-07T03:00:15.067Z,20.40
2022-09-07T03:02:52.257Z,20.40
2022-09-07T03:05:24.177Z,20.40
2022-09-07T03:07:56.923Z,20.40
2022-09-07T03:10:25.419Z,20.40
2022-09-07T03:12:53.384Z,20.40
2022-09-07T03:15:23.216Z,20.40
2022-09-07T03:17:53.289Z,20.40
2022-09-07T03:20:21.925Z,20.50
2022-09-07T03:22:51.297Z,20.50
2022-09-07T03:25:20.411Z,20.60
2022-09-07T03:27:48.408Z,20.60
2022-09-07T03:30:16.367Z,20.60
2022-09-07T03:32:44.295Z,20.60
2022-09-07T03:35:14.937Z,20.60
2022-09-07T03:37:42.944Z,20.60
2022-09-07T03:40:13.207Z,20.60
2022-09-07T03:42:41.279Z,20.60
2022-09-07T03:45:10.438Z,20.60
2022-09-07T03:47:39.008Z,20.60
2022-09-07T03:50:08.347Z,20.60
2022-09-07T03:52:38.176Z,20.60
2022-09-07T03:55:06.887Z,20.60
2022-09-07T03:57:35.022Z,20.60
2022-09-07T04:00:03.511Z,20.60
2022-09-07T04:02:40.455Z,20.50
2022-09-07T04:05:09.265Z,20.50
2022-09-07T04:07:38.569Z,20.40
2022-09-07T04:10:07.172Z,20.40
2022-09-07T04:12:35.102Z,20.40
2022-09-07T04:15:03.039Z,20.40
2022-09-07T04:17:30.984Z,20.40
2022-09-07T04:19:58.901Z,20.40
2022-09-07T04:22:26.895Z,20.40
2022-09-07T04:24:56.169Z,20.40
2022-09-07T04:27:24.107Z,20.40
2022-09-07T04:29:52.032Z,20.40
2022-09-07T04:32:19.960Z,20.40
2022-09-07T04:34:48.809Z,20.40
2022-09-07T04:37:16.775Z,20.50
2022-09-07T04:39:44.788Z,20.50
2022-09-07T04:42:14.257Z,20.40
2022-09-07T04:44:42.181Z,20.30
2022-09-07T04:47:10.236Z,20.20
2022-09-07T04:49:38.217Z,20.10
2022-09-07T04:52:06.118Z,20.10
2022-09-07T04:54:34.128Z,20.10
2022-09-07T04:57:02.070Z,20.10
2022-09-07T04:59:31.482Z,20.20
2022-09-07T05:01:59.545Z,20.20
2022-09-07T05:04:27.534Z,20.30
2022-09-07T05:06:55.950Z,20.40
2022-09-07T05:09:23.857Z,20.40
2022-09-07T05:11:51.804Z,20.50
2022-09-07T05:14:20.251Z,20.50
2022-09-07T05:16:49.640Z,20.60
2022-09-07T05:19:17.581Z,20.60
2022-09-07T05:21:45.498Z,20.60
2022-09-07T05:24:13.502Z,20.70
2022-09-07T05:26:41.855Z,20.70
2022-09-07T05:31:59.242Z,20.80
2022-09-07T05:36:56.290Z,20.90
2022-09-07T05:39:24.457Z,20.90
2022-09-07T05:41:52.528Z,21.00
2022-09-07T05:47:10.119Z,21.00
2022-09-07T05:49:38.358Z,21.00
2022-09-07T05:52:06.365Z,20.90
2022-09-07T05:54:34.672Z,20.80
2022-09-07T05:57:03.520Z,20.80
2022-09-07T05:59:31.795Z,20.70
2022-09-07T06:01:59.981Z,20.70
2022-09-07T06:04:29.418Z,20.70
2022-09-07T06:12:33.439Z,20.80
2022-09-07T06:15:01.554Z,20.90
2022-09-07T06:17:31.001Z,21.00
2022-09-07T06:20:00.283Z,21.10
2022-09-07T06:22:30.957Z,21.20
2022-09-07T06:24:59.295Z,21.30
2022-09-07T06:27:27.251Z,21.40
2022-09-07T06:29:55.532Z,21.40
2022-09-07T06:35:13.058Z,21.60
2022-09-07T06:37:41.511Z,21.70
2022-09-07T06:40:11.531Z,21.70
2022-09-07T06:42:39.630Z,21.80
2022-09-07T06:45:11.403Z,21.80
2022-09-07T06:47:40.000Z,21.90
2022-09-07T06:50:09.052Z,21.90
2022-09-07T06:55:27.717Z,21.90
2022-09-07T06:57:55.734Z,22.00
2022-09-07T07:00:23.732Z,22.00
2022-09-07T07:02:51.903Z,22.00
2022-09-07T07:05:19.872Z,22.10
2022-09-07T07:07:49.110Z,22.10
2022-09-07T07:10:19.706Z,22.20
2022-09-07T07:12:50.285Z,22.20
2022-09-07T07:15:18.448Z,22.20
2022-09-07T07:17:51.933Z,22.20
2022-09-07T07:20:24.026Z,22.20
2022-09-07T07:22:53.616Z,22.20
2022-09-07T07:25:22.052Z,22.30
2022-09-07T07:27:50.447Z,22.30
2022-09-07T07:30:19.481Z,22.30
2022-09-07T07:32:48.298Z,22.40
2022-09-07T07:35:16.512Z,22.40
2022-09-07T07:37:44.395Z,22.40
2022-09-07T07:40:15.408Z,22.50
2022-09-07T07:42:44.615Z,22.50
2022-09-07T07:48:00.953Z,22.60
2022-09-07T07:50:32.770Z,22.60
2022-09-07T07:55:50.487Z,22.70
2022-09-07T07:58:18.710Z,22.70
2022-09-07T08:00:55.633Z,22.70
2022-09-07T08:03:24.805Z,22.70
2022-09-07T08:05:53.146Z,22.80
2022-09-07T08:08:23.166Z,22.90
2022-09-07T08:10:52.982Z,22.90
2022-09-07T08:13:21.426Z,22.90
2022-09-07T08:15:49.568Z,23.00
2022-09-07T08:18:18.060Z,23.10
2022-09-07T08:20:45.922Z,23.10
2022-09-07T08:23:15.210Z,23.20
2022-09-07T08:25:52.509Z,23.20
2022-09-07T08:28:20.929Z,23.30
2022-09-07T08:30:48.876Z,23.40
2022-09-07T08:33:17.437Z,23.40
2022-09-07T08:35:56.216Z,23.40
2022-09-07T08:38:24.422Z,23.40
2022-09-07T08:40:54.154Z,23.50
2022-09-07T08:43:31.353Z,23.50
2022-09-07T08:46:05.669Z,23.60
2022-09-07T08:48:35.571Z,23.60
2022-09-07T08:51:10.850Z,23.70
2022-09-07T08:53:45.465Z,23.80
2022-09-07T08:56:19.931Z,23.80
2022-09-07T08:58:50.449Z,23.80
2022-09-07T09:01:35.968Z,23.90
2022-09-07T09:04:22.275Z,23.90
2022-09-07T09:07:06.671Z,24.00
2022-09-07T09:09:58.457Z,24.00
2022-09-07T09:12:37.558Z,24.10
2022-09-07T09:15:16.845Z,24.10
2022-09-07T09:17:48.788Z,24.20
2022-09-07T09:20:24.798Z,24.20
2022-09-07T09:22:53.337Z,24.30
2022-09-07T09:25:26.437Z,24.30
2022-09-07T09:27:55.693Z,24.40
2022-09-07T09:30:24.656Z,24.40
2022-09-07T09:32:54.008Z,24.50
2022-09-07T09:35:28.506Z,24.50
2022-09-07T09:37:57.565Z,24.50
2022-09-07T09:40:29.107Z,24.50
2022-09-07T09:43:03.666Z,24.60
2022-09-07T09:48:31.507Z,24.60
2022-09-07T09:53:55.768Z,24.70
2022-09-07T09:56:36.150Z,24.70
2022-09-07T10:05:27.531Z,24.80
2022-09-07T10:07:56.288Z,24.80
2022-09-07T10:10:24.275Z,24.90
2022-09-07T10:12:55.156Z,24.90
2022-09-07T10:15:40.186Z,25.00
2022-09-07T10:18:16.712Z,25.00
2022-09-07T10:20:44.653Z,25.10
2022-09-07T10:23:22.320Z,25.20
2022-09-07T10:25:50.225Z,25.20
2022-09-07T10:28:21.130Z,25.30
2022-09-07T10:31:09.953Z,25.30
2022-09-07T10:36:42.905Z,25.40
2022-09-07T10:39:16.043Z,25.40
2022-09-07T10:41:49.643Z,25.50
2022-09-07T10:44:30.058Z,25.50
2022-09-07T10:47:03.949Z,25.40
2022-09-07T10:50:22.077Z,25.40
2022-09-07T10:52:35.956Z,25.40
2022-09-07T10:55:13.046Z,25.40
2022-09-07T10:57:55.649Z,25.50
2022-09-07T11:00:24.374Z,25.50
2022-09-07T11:03:28.065Z,25.40
2022-09-07T11:06:09.581Z,25.40
2022-09-07T11:14:35.938Z,25.40
2022-09-07T11:17:09.528Z,25.40
2022-09-07T11:19:45.158Z,25.40
2022-09-07T11:22:23.396Z,25.50
2022-09-07T11:27:48.258Z,25.50
2022-09-07T11:30:22.799Z,25.50
2022-09-07T11:32:59.073Z,25.50
2022-09-07T11:35:37.842Z,25.50
2022-09-07T11:38:15.029Z,25.50
2022-09-07T11:40:49.662Z,25.50
2022-09-07T11:43:21.726Z,25.60
2022-09-07T11:45:53.846Z,25.60
2022-09-07T11:48:30.491Z,25.60
2022-09-07T11:51:03.228Z,25.60
2022-09-07T11:53:34.559Z,25.60
2022-09-07T11:56:06.064Z,25.60
2022-09-07T11:58:53.931Z,25.60
2022-09-07T12:01:31.737Z,25.70
2022-09-07T12:04:19.300Z,25.70
2022-09-07T12:07:08.748Z,25.70
2022-09-07T12:09:51.099Z,25.80
2022-09-07T12:12:43.714Z,25.80
2022-09-07T12:15:24.727Z,25.90
2022-09-07T12:18:07.563Z,26.00
2022-09-07T12:20:41.359Z,26.00
2022-09-07T12:23:26.353Z,26.00
2022-09-07T12:26:38.335Z,26.00
2022-09-07T12:29:21.001Z,26.00
2022-09-07T12:31:59.858Z,26.10
2022-09-07T12:34:47.274Z,26.00
2022-09-07T12:37:43.100Z,26.00
2022-09-07T12:40:58.808Z,26.00
2022-09-07T12:43:46.840Z,26.00
2022-09-07T12:46:36.838Z,26.10
2022-09-07T12:49:16.927Z,26.20
2022-09-07T12:52:11.427Z,26.20
2022-09-07T12:54:59.686Z,26.20
2022-09-07T12:57:45.016Z,26.30
2022-09-07T13:00:18.864Z,26.40
2022-09-07T13:03:49.619Z,26.40
2022-09-07T13:06:07.286Z,26.50
2022-09-07T13:09:06.043Z,26.60
2022-09-07T13:11:37.536Z,26.70
2022-09-07T13:14:18.526Z,26.80
2022-09-07T13:20:39.122Z,26.70
2022-09-07T13:23:29.732Z,26.70
2022-09-07T13:26:00.470Z,26.80
2022-09-07T13:29:02.864Z,26.80
2022-09-07T13:31:47.164Z,26.90
2022-09-07T13:34:41.027Z,26.90
2022-09-07T13:37:17.416Z,27.00
2022-09-07T13:39:49.096Z,27.10
2022-09-07T13:42:19.428Z,27.20
2022-09-07T13:44:55.173Z,27.20
2022-09-07T13:47:53.093Z,27.30
2022-09-07T13:50:27.519Z,27.40
2022-09-07T13:53:12.281Z,27.40
2022-09-07T13:55:46.600Z,27.40
2022-09-07T13:58:17.926Z,27.40
2022-09-07T14:00:54.574Z,27.40
2022-09-07T14:03:26.714Z,27.40
2022-09-07T14:06:17.469Z,27.40
2022-09-07T14:08:49.732Z,27.40
2022-09-07T14:11:19.898Z,27.40
2022-09-07T14:13:47.767Z,27.30
2022-09-07T14:16:17.202Z,27.40
2022-09-07T14:18:46.776Z,27.40
2022-09-07T14:21:19.170Z,27.40
2022-09-07T14:23:51.913Z,27.40
2022-09-07T14:26:22.052Z,27.50
2022-09-07T14:28:52.375Z,27.60
2022-09-07T14:31:22.144Z,27.70
2022-09-07T14:33:54.351Z,27.70
2022-09-07T14:39:17.942Z,27.70
2022-09-07T14:41:46.562Z,27.60
2022-09-07T14:44:35.554Z,27.60
2022-09-07T14:47:08.999Z,27.60
2022-09-07T14:49:38.652Z,27.60
2022-09-07T14:52:06.677Z,27.60
2022-09-07T14:54:35.445Z,27.60
2022-09-07T14:57:07.467Z,27.50
2022-09-07T14:59:39.513Z,27.50
2022-09-07T15:02:40.827Z,27.50
2022-09-07T15:05:26.421Z,27.50
2022-09-07T15:07:57.604Z,27.50
2022-09-07T15:10:36.807Z,27.50
2022-09-07T15:13:07.203Z,27.50
2022-09-07T15:15:37.473Z,27.60
2022-09-07T15:18:26.952Z,27.70
2022-09-07T15:20:56.245Z,27.90
2022-09-07T15:23:24.217Z,27.90
2022-09-07T15:25:54.082Z,28.00
2022-09-07T15:34:04.797Z,28.10
2022-09-07T15:36:34.177Z,28.10
2022-09-07T15:39:03.292Z,28.10
2022-09-07T15:41:32.050Z,28.00
2022-09-07T15:44:00.322Z,28.00
2022-09-07T15:46:28.564Z,27.90
2022-09-07T15:48:57.122Z,27.90
2022-09-07T15:54:17.390Z,27.90
2022-09-07T15:57:48.400Z,27.90
2022-09-07T15:59:33.981Z,27.90
2022-09-07T16:02:02.822Z,27.80
2022-09-07T16:04:31.285Z,27.80
2022-09-07T16:07:01.535Z,27.70
2022-09-07T16:09:31.066Z,27.70
2022-09-07T16:12:59.963Z,27.70
2022-09-07T16:14:46.988Z,27.60
2022-09-07T16:17:35.726Z,27.60
2022-09-07T16:20:02.915Z,27.60
2022-09-07T16:25:20.163Z,27.50
2022-09-07T16:27:48.054Z,27.50
2022-09-07T16:30:15.953Z,27.50
2022-09-07T16:32:44.662Z,27.50
2022-09-07T16:35:12.802Z,27.40
2022-09-07T16:38:43.675Z,27.40
2022-09-07T16:40:30.090Z,27.40
2022-09-07T16:42:58.014Z,27.40
2022-09-07T16:48:14.120Z,27.50
2022-09-07T16:50:54.178Z,27.50
2022-09-07T16:53:26.863Z,27.50
2022-09-07T16:56:01.396Z,27.40
2022-09-07T16:58:38.275Z,27.40
2022-09-07T17:01:07.418Z,27.30
2022-09-07T17:03:36.883Z,27.30
2022-09-07T17:06:06.665Z,27.30
2022-09-07T17:08:36.729Z,27.20
2022-09-07T17:11:07.847Z,27.20
2022-09-07T17:13:37.800Z,27.20
2022-09-07T17:16:08.182Z,27.10
2022-09-07T17:21:24.980Z,27.00
2022-09-07T17:23:55.788Z,26.90
2022-09-07T17:26:27.175Z,26.90
2022-09-07T17:29:00.291Z,26.80
2022-09-07T17:34:18.777Z,26.80
2022-09-07T17:36:46.895Z,26.70
2022-09-07T17:39:17.697Z,26.70
2022-09-07T17:41:52.699Z,26.70
2022-09-07T17:44:21.184Z,26.60
2022-09-07T17:46:49.125Z,26.60
2022-09-07T17:49:17.814Z,26.60
2022-09-07T17:51:46.571Z,26.50
2022-09-07T17:54:17.728Z,26.50
2022-09-07T17:56:46.749Z,26.40
2022-09-07T18:02:05.032Z,26.30
2022-09-07T18:04:36.021Z,26.30
2022-09-07T18:07:04.565Z,26.20
2022-09-07T18:09:32.545Z,26.10
2022-09-07T18:12:00.564Z,26.10
2022-09-07T18:14:30.182Z,26.00
2022-09-07T18:16:58.138Z,25.90
2022-09-07T18:19:26.164Z,25.90
2022-09-07T18:21:54.200Z,25.80
2022-09-07T18:24:24.790Z,25.80
2022-09-07T18:26:54.512Z,25.80
2022-09-07T18:29:34.090Z,25.80
2022-09-07T18:32:08.424Z,25.80
2022-09-07T18:34:37.920Z,25.80
2022-09-07T18:37:06.616Z,25.70
2022-09-07T18:39:35.566Z,25.70
2022-09-07T18:42:03.741Z,25.80
2022-09-07T18:47:28.945Z,25.70
2022-09-07T18:49:57.831Z,25.70
2022-09-07T18:55:14.850Z,25.60
2022-09-07T18:57:42.993Z,25.60
2022-09-07T19:00:13.123Z,25.60
2022-09-07T19:02:42.765Z,25.60
2022-09-07T19:07:59.602Z,25.50
2022-09-07T19:10:27.698Z,25.50
2022-09-07T19:12:56.651Z,25.40
2022-09-07T19:15:24.676Z,25.40
2022-09-07T19:17:54.032Z,25.40
2022-09-07T19:20:22.028Z,25.30
2022-09-07T19:22:49.986Z,25.30
2022-09-07T19:25:19.349Z,25.20
2022-09-07T19:27:47.815Z,25.10
2022-09-07T19:30:17.428Z,25.10
2022-09-07T19:32:45.484Z,25.00
2022-09-07T19:35:14.788Z,24.90
2022-09-07T19:37:42.715Z,24.80
2022-09-07T19:40:15.833Z,24.80
2022-09-07T19:42:46.456Z,24.70
2022-09-07T19:45:15.451Z,24.60
2022-09-07T19:47:43.850Z,24.60
2022-09-07T19:50:11.853Z,24.60
2022-09-07T19:52:41.148Z,24.50
2022-09-07T19:55:09.960Z,24.50
2022-09-07T19:57:37.911Z,24.50
2022-09-07T20:00:09.078Z,24.40
2022-09-07T20:02:39.946Z,24.40
2022-09-07T20:05:08.413Z,24.40
2022-09-07T20:07:36.325Z,24.30
2022-09-07T20:10:06.712Z,24.30
2022-09-07T20:12:34.649Z,24.30
2022-09-07T20:15:02.570Z,24.30
2022-09-07T20:17:35.310Z,24.20
2022-09-07T20:20:04.325Z,24.20
2022-09-07T20:22:32.403Z,24.20
2022-09-07T20:25:00.413Z,24.10
2022-09-07T20:27:30.559Z,24.10
2022-09-07T20:29:58.483Z,24.10
2022-09-07T20:32:28.172Z,24.00
2022-09-07T20:34:56.383Z,24.00
2022-09-07T20:37:27.261Z,23.90
2022-09-07T20:39:55.239Z,23.80
2022-09-07T20:42:23.128Z,23.80
2022-09-07T20:44:53.476Z,23.80
2022-09-07T20:47:21.370Z,23.70
2022-09-07T20:49:49.354Z,23.70
2022-09-07T20:52:17.268Z,23.70
2022-09-07T20:54:45.153Z,23.60
2022-09-07T20:57:13.135Z,23.50
2022-09-07T20:59:40.984Z,23.50
2022-09-07T21:02:11.538Z,23.50
2022-09-07T21:04:39.613Z,23.40
2022-09-07T21:07:07.557Z,23.40
2022-09-07T21:09:35.546Z,23.40
2022-09-07T21:12:04.092Z,23.30
2022-09-07T21:14:32.132Z,23.20
2022-09-07T21:17:00.122Z,23.20
2022-09-07T21:19:29.353Z,23.20
2022-09-07T21:21:57.223Z,23.20
2022-09-07T21:24:25.588Z,23.20
2022-09-07T21:26:53.575Z,23.20
2022-09-07T21:29:23.996Z,23.20
2022-09-07T21:31:53.804Z,23.20
2022-09-07T21:34:22.166Z,23.20
2022-09-07T21:36:51.839Z,23.30
2022-09-07T21:39:20.786Z,23.30
2022-09-07T21:41:48.964Z,23.20
2022-09-07T21:44:17.384Z,23.20
2022-09-07T21:46:45.669Z,23.20
2022-09-07T21:49:13.623Z,23.20
2022-09-07T21:51:41.631Z,23.10
2022-09-07T21:54:10.985Z,23.10
2022-09-07T21:56:42.003Z,23.00
2022-09-07T21:59:12.478Z,23.00
2022-09-07T22:01:41.170Z,23.00
2022-09-07T22:04:09.076Z,23.10
2022-09-07T22:06:37.699Z,23.10
2022-09-07T22:09:05.973Z,23.00
2022-09-07T22:11:35.233Z,23.10
2022-09-07T22:14:04.730Z,23.10
2022-09-07T22:16:33.799Z,23.00
2022-09-07T22:19:01.994Z,23.00
2022-09-07T22:21:31.765Z,22.90
2022-09-07T22:24:02.123Z,22.80
2022-09-07T22:26:31.833Z,22.70
2022-09-07T22:29:01.308Z,22.70
2022-09-07T22:31:31.507Z,22.80
2022-09-07T22:34:00.722Z,22.80
2022-09-07T22:36:30.853Z,22.90
2022-09-07T22:39:01.157Z,22.90
2022-09-07T22:41:30.723Z,22.90
2022-09-07T22:43:59.545Z,22.90
2022-09-07T22:46:30.643Z,22.90
2022-09-07T22:48:59.523Z,22.90
2022-09-07T22:51:28.281Z,22.90
2022-09-07T22:53:56.686Z,22.90
2022-09-07T22:56:26.050Z,22.90
2022-09-07T22:58:56.965Z,22.90
2022-09-07T23:01:25.801Z,22.90
2022-09-07T23:03:56.133Z,22.90
2022-09-07T23:06:25.642Z,22.90
2022-09-07T23:08:54.852Z,22.90
2022-09-07T23:11:24.207Z,22.90
2022-09-07T23:13:52.982Z,22.80
2022-09-07T23:16:21.705Z,22.80
2022-09-07T23:18:50.197Z,22.80
2022-09-07T23:21:19.706Z,22.80
2022-09-07T23:23:51.046Z,22.80
2022-09-07T23:26:19.315Z,22.80
2022-09-07T23:28:51.162Z,22.80
2022-09-07T23:31:19.082Z,22.70
2022-09-07T23:33:46.989Z,22.70
2022-09-07T23:36:15.454Z,22.70
2022-09-07T23:38:44.764Z,22.70
2022-09-07T23:41:13.861Z,22.70
2022-09-07T23:43:42.133Z,22.70
2022-09-07T23:46:11.607Z,22.70
2022-09-07T23:48:39.961Z,22.60
2022-09-07T23:51:08.090Z,22.60
2022-09-07T23:53:35.957Z,22.60
2022-09-07T23:56:05.685Z,22.60
2022-09-07T23:58:33.584Z,22.60
